sensor_id;sensor_type;location;lat;lon;timestamp;P1;durP1;ratioP1;P2;durP2;ratioP2
52948;SDS011;38812;50.942;3.644;2022-10-31T00:01:24;6.40;;;4.00;;
52948;SDS011;38812;50.942;3.644;2022-10-31T00:06:17;7.00;;;3.63;;
52948;SDS011;38812;50.942;3.644;2022-10-31T00:08:44;6.47;;;4.18;;
52948;SDS011;38812;50.942;3.644;2022-10-31T00:11:11;11.38;;;4.80;;
52948;SDS011;38812;50.942;3.644;2022-10-31T00:13:36;13.93;;;5.30;;
52948;SDS011;38812;50.942;3.644;2022-10-31T00:16:01;9.45;;;4.10;;
52948;SDS011;38812;50.942;3.644;2022-10-31T00:18:27;10.45;;;4.10;;
52948;SDS011;38812;50.942;3.644;2022-10-31T00:21:02;11.40;;;4.70;;
52948;SDS011;38812;50.942;3.644;2022-10-31T00:23:28;7.57;;;4.75;;
52948;SDS011;38812;50.942;3.644;2022-10-31T00:25:54;7.05;;;4.72;;
52948;SDS011;38812;50.942;3.644;2022-10-31T00:28:25;8.23;;;4.72;;
52948;SDS011;38812;50.942;3.644;2022-10-31T00:30:50;9.50;;;4.68;;
52948;SDS011;38812;50.942;3.644;2022-10-31T00:33:16;7.78;;;4.57;;
52948;SDS011;38812;50.942;3.644;2022-10-31T00:35:41;10.27;;;5.22;;
52948;SDS011;38812;50.942;3.644;2022-10-31T00:38:06;10.10;;;4.60;;
52948;SDS011;38812;50.942;3.644;2022-10-31T00:40:32;8.77;;;5.47;;
52948;SDS011;38812;50.942;3.644;2022-10-31T00:42:57;7.78;;;4.43;;
52948;SDS011;38812;50.942;3.644;2022-10-31T00:45:23;8.55;;;4.50;;
52948;SDS011;38812;50.942;3.644;2022-10-31T00:47:48;9.25;;;5.00;;
52948;SDS011;38812;50.942;3.644;2022-10-31T00:50:13;11.50;;;4.72;;
52948;SDS011;38812;50.942;3.644;2022-10-31T00:52:39;9.75;;;5.13;;
52948;SDS011;38812;50.942;3.644;2022-10-31T00:55:04;11.65;;;5.55;;
52948;SDS011;38812;50.942;3.644;2022-10-31T00:57:30;16.38;;;5.45;;
52948;SDS011;38812;50.942;3.644;2022-10-31T00:59:55;15.25;;;5.72;;
52948;SDS011;38812;50.942;3.644;2022-10-31T01:02:20;11.15;;;5.28;;
52948;SDS011;38812;50.942;3.644;2022-10-31T01:04:46;9.05;;;5.18;;
52948;SDS011;38812;50.942;3.644;2022-10-31T01:07:11;6.90;;;4.68;;
52948;SDS011;38812;50.942;3.644;2022-10-31T01:09:38;10.48;;;5.10;;
52948;SDS011;38812;50.942;3.644;2022-10-31T01:12:04;11.05;;;4.97;;
52948;SDS011;38812;50.942;3.644;2022-10-31T01:14:29;12.63;;;6.15;;
52948;SDS011;38812;50.942;3.644;2022-10-31T01:16:55;10.35;;;5.10;;
52948;SDS011;38812;50.942;3.644;2022-10-31T01:19:20;10.00;;;6.30;;
52948;SDS011;38812;50.942;3.644;2022-10-31T01:21:45;12.13;;;5.50;;
52948;SDS011;38812;50.942;3.644;2022-10-31T01:24:11;8.85;;;5.32;;
52948;SDS011;38812;50.942;3.644;2022-10-31T01:26:36;11.77;;;5.45;;
52948;SDS011;38812;50.942;3.644;2022-10-31T01:29:06;9.00;;;4.95;;
52948;SDS011;38812;50.942;3.644;2022-10-31T01:31:34;9.00;;;5.53;;
52948;SDS011;38812;50.942;3.644;2022-10-31T01:34:01;11.73;;;5.95;;
52948;SDS011;38812;50.942;3.644;2022-10-31T01:36:28;16.30;;;6.70;;
52948;SDS011;38812;50.942;3.644;2022-10-31T01:38:56;10.40;;;5.90;;
52948;SDS011;38812;50.942;3.644;2022-10-31T01:41:25;9.40;;;6.13;;
52948;SDS011;38812;50.942;3.644;2022-10-31T01:44:00;10.27;;;5.70;;
52948;SDS011;38812;50.942;3.644;2022-10-31T01:46:37;10.63;;;6.00;;
52948;SDS011;38812;50.942;3.644;2022-10-31T01:49:13;9.38;;;5.15;;
52948;SDS011;38812;50.942;3.644;2022-10-31T01:51:53;10.65;;;6.20;;
52948;SDS011;38812;50.942;3.644;2022-10-31T01:54:25;11.80;;;5.95;;
52948;SDS011;38812;50.942;3.644;2022-10-31T01:56:58;14.35;;;6.22;;
52948;SDS011;38812;50.942;3.644;2022-10-31T01:59:25;12.32;;;5.70;;
52948;SDS011;38812;50.942;3.644;2022-10-31T02:01:54;13.38;;;6.20;;
52948;SDS011;38812;50.942;3.644;2022-10-31T02:04:20;10.98;;;5.93;;
52948;SDS011;38812;50.942;3.644;2022-10-31T02:06:51;11.90;;;5.70;;
52948;SDS011;38812;50.942;3.644;2022-10-31T02:09:21;11.93;;;6.07;;
52948;SDS011;38812;50.942;3.644;2022-10-31T02:11:52;11.93;;;5.70;;
52948;SDS011;38812;50.942;3.644;2022-10-31T02:14:23;10.40;;;5.90;;
52948;SDS011;38812;50.942;3.644;2022-10-31T02:16:51;7.60;;;5.53;;
52948;SDS011;38812;50.942;3.644;2022-10-31T02:19:35;9.38;;;6.20;;
52948;SDS011;38812;50.942;3.644;2022-10-31T02:22:07;10.75;;;5.95;;
52948;SDS011;38812;50.942;3.644;2022-10-31T02:40:56;12.57;;;7.30;;
52948;SDS011;38812;50.942;3.644;2022-10-31T02:43:40;8.52;;;6.35;;
52948;SDS011;38812;50.942;3.644;2022-10-31T02:46:13;11.85;;;5.95;;
52948;SDS011;38812;50.942;3.644;2022-10-31T02:48:44;11.27;;;6.53;;
52948;SDS011;38812;50.942;3.644;2022-10-31T02:51:12;13.18;;;6.05;;
52948;SDS011;38812;50.942;3.644;2022-10-31T02:53:38;15.70;;;6.55;;
52948;SDS011;38812;50.942;3.644;2022-10-31T02:58:38;10.73;;;6.20;;
52948;SDS011;38812;50.942;3.644;2022-10-31T03:01:24;9.20;;;6.15;;
52948;SDS011;38812;50.942;3.644;2022-10-31T03:17:26;19.73;;;7.47;;
52948;SDS011;38812;50.942;3.644;2022-10-31T03:19:59;11.70;;;6.80;;
52948;SDS011;38812;50.942;3.644;2022-10-31T03:22:27;15.75;;;6.78;;
52948;SDS011;38812;50.942;3.644;2022-10-31T03:24:54;15.20;;;6.20;;
52948;SDS011;38812;50.942;3.644;2022-10-31T03:27:22;13.00;;;7.53;;
52948;SDS011;38812;50.942;3.644;2022-10-31T03:29:50;17.77;;;7.75;;
52948;SDS011;38812;50.942;3.644;2022-10-31T03:32:28;17.60;;;7.05;;
52948;SDS011;38812;50.942;3.644;2022-10-31T03:34:58;14.77;;;7.20;;
52948;SDS011;38812;50.942;3.644;2022-10-31T03:37:27;15.05;;;7.47;;
52948;SDS011;38812;50.942;3.644;2022-10-31T03:39:55;12.43;;;6.55;;
52948;SDS011;38812;50.942;3.644;2022-10-31T03:42:27;13.10;;;6.90;;
52948;SDS011;38812;50.942;3.644;2022-10-31T03:44:57;14.63;;;7.85;;
52948;SDS011;38812;50.942;3.644;2022-10-31T03:47:26;22.13;;;7.03;;
52948;SDS011;38812;50.942;3.644;2022-10-31T03:49:52;16.63;;;6.97;;
52948;SDS011;38812;50.942;3.644;2022-10-31T03:54:49;13.20;;;8.25;;
52948;SDS011;38812;50.942;3.644;2022-10-31T03:57:24;21.35;;;7.32;;
52948;SDS011;38812;50.942;3.644;2022-10-31T03:59:53;14.68;;;7.72;;
52948;SDS011;38812;50.942;3.644;2022-10-31T04:02:30;13.27;;;7.13;;
52948;SDS011;38812;50.942;3.644;2022-10-31T04:04:57;11.95;;;6.50;;
52948;SDS011;38812;50.942;3.644;2022-10-31T04:07:24;12.95;;;7.10;;
52948;SDS011;38812;50.942;3.644;2022-10-31T04:09:54;21.02;;;7.43;;
52948;SDS011;38812;50.942;3.644;2022-10-31T04:12:22;15.00;;;7.28;;
52948;SDS011;38812;50.942;3.644;2022-10-31T04:14:50;12.80;;;7.15;;
52948;SDS011;38812;50.942;3.644;2022-10-31T04:17:18;15.30;;;7.63;;
52948;SDS011;38812;50.942;3.644;2022-10-31T04:19:48;12.43;;;7.55;;
52948;SDS011;38812;50.942;3.644;2022-10-31T04:22:13;18.02;;;7.28;;
52948;SDS011;38812;50.942;3.644;2022-10-31T04:24:39;12.00;;;7.10;;
52948;SDS011;38812;50.942;3.644;2022-10-31T04:27:05;16.85;;;7.22;;
52948;SDS011;38812;50.942;3.644;2022-10-31T04:29:31;12.55;;;8.10;;
52948;SDS011;38812;50.942;3.644;2022-10-31T04:31:56;15.55;;;7.55;;
52948;SDS011;38812;50.942;3.644;2022-10-31T04:34:21;17.70;;;8.63;;
52948;SDS011;38812;50.942;3.644;2022-10-31T04:36:47;17.65;;;7.28;;
52948;SDS011;38812;50.942;3.644;2022-10-31T04:39:12;10.40;;;6.65;;
52948;SDS011;38812;50.942;3.644;2022-10-31T04:41:37;12.32;;;6.63;;
52948;SDS011;38812;50.942;3.644;2022-10-31T04:44:03;8.10;;;5.85;;
52948;SDS011;38812;50.942;3.644;2022-10-31T04:46:28;8.77;;;5.05;;
52948;SDS011;38812;50.942;3.644;2022-10-31T04:48:53;10.90;;;5.63;;
52948;SDS011;38812;50.942;3.644;2022-10-31T04:51:19;7.57;;;4.70;;
52948;SDS011;38812;50.942;3.644;2022-10-31T04:53:44;16.38;;;5.50;;
52948;SDS011;38812;50.942;3.644;2022-10-31T04:56:10;11.02;;;5.60;;
52948;SDS011;38812;50.942;3.644;2022-10-31T04:58:35;7.60;;;5.85;;
52948;SDS011;38812;50.942;3.644;2022-10-31T05:01:00;8.48;;;5.00;;
52948;SDS011;38812;50.942;3.644;2022-10-31T05:03:26;9.77;;;5.88;;
52948;SDS011;38812;50.942;3.644;2022-10-31T05:05:51;9.88;;;5.68;;
52948;SDS011;38812;50.942;3.644;2022-10-31T05:08:16;11.95;;;5.93;;
52948;SDS011;38812;50.942;3.644;2022-10-31T05:10:42;8.88;;;4.93;;
52948;SDS011;38812;50.942;3.644;2022-10-31T05:13:07;8.65;;;4.47;;
52948;SDS011;38812;50.942;3.644;2022-10-31T05:15:33;12.80;;;5.97;;
52948;SDS011;38812;50.942;3.644;2022-10-31T05:17:59;7.50;;;5.22;;
52948;SDS011;38812;50.942;3.644;2022-10-31T05:20:26;9.55;;;5.18;;
52948;SDS011;38812;50.942;3.644;2022-10-31T05:22:53;9.27;;;5.40;;
52948;SDS011;38812;50.942;3.644;2022-10-31T05:25:21;10.93;;;5.13;;
52948;SDS011;38812;50.942;3.644;2022-10-31T05:27:48;11.35;;;5.65;;
52948;SDS011;38812;50.942;3.644;2022-10-31T05:30:19;8.82;;;5.65;;
52948;SDS011;38812;50.942;3.644;2022-10-31T05:32:49;10.63;;;5.60;;
52948;SDS011;38812;50.942;3.644;2022-10-31T05:35:16;16.50;;;7.20;;
52948;SDS011;38812;50.942;3.644;2022-10-31T05:37:46;9.63;;;4.70;;
52948;SDS011;38812;50.942;3.644;2022-10-31T05:40:12;5.70;;;3.05;;
52948;SDS011;38812;50.942;3.644;2022-10-31T05:42:39;2.38;;;1.40;;
52948;SDS011;38812;50.942;3.644;2022-10-31T05:45:06;2.72;;;1.95;;
52948;SDS011;38812;50.942;3.644;2022-10-31T05:47:33;4.22;;;2.33;;
52948;SDS011;38812;50.942;3.644;2022-10-31T05:49:58;4.28;;;2.47;;
52948;SDS011;38812;50.942;3.644;2022-10-31T05:52:24;7.82;;;3.25;;
52948;SDS011;38812;50.942;3.644;2022-10-31T05:54:49;7.55;;;5.43;;
52948;SDS011;38812;50.942;3.644;2022-10-31T05:57:14;9.05;;;5.05;;
52948;SDS011;38812;50.942;3.644;2022-10-31T05:59:40;10.95;;;5.63;;
52948;SDS011;38812;50.942;3.644;2022-10-31T06:02:05;9.38;;;4.80;;
52948;SDS011;38812;50.942;3.644;2022-10-31T06:04:31;8.55;;;5.72;;
52948;SDS011;38812;50.942;3.644;2022-10-31T06:06:56;9.25;;;5.75;;
52948;SDS011;38812;50.942;3.644;2022-10-31T06:09:22;7.95;;;5.57;;
52948;SDS011;38812;50.942;3.644;2022-10-31T06:11:47;11.32;;;6.25;;
52948;SDS011;38812;50.942;3.644;2022-10-31T06:14:12;13.13;;;7.50;;
52948;SDS011;38812;50.942;3.644;2022-10-31T06:16:38;14.77;;;8.00;;
52948;SDS011;38812;50.942;3.644;2022-10-31T06:19:03;17.13;;;7.88;;
52948;SDS011;38812;50.942;3.644;2022-10-31T06:21:28;12.05;;;7.97;;
52948;SDS011;38812;50.942;3.644;2022-10-31T06:23:54;16.73;;;8.65;;
52948;SDS011;38812;50.942;3.644;2022-10-31T06:26:19;13.73;;;8.63;;
52948;SDS011;38812;50.942;3.644;2022-10-31T06:28:44;22.00;;;9.85;;
52948;SDS011;38812;50.942;3.644;2022-10-31T06:31:10;15.80;;;9.50;;
52948;SDS011;38812;50.942;3.644;2022-10-31T06:33:35;19.88;;;8.95;;
52948;SDS011;38812;50.942;3.644;2022-10-31T06:36:01;18.90;;;9.68;;
52948;SDS011;38812;50.942;3.644;2022-10-31T06:38:26;17.08;;;9.88;;
52948;SDS011;38812;50.942;3.644;2022-10-31T06:40:53;19.13;;;9.32;;
52948;SDS011;38812;50.942;3.644;2022-10-31T06:43:19;17.23;;;9.63;;
52948;SDS011;38812;50.942;3.644;2022-10-31T06:45:45;17.88;;;10.75;;
52948;SDS011;38812;50.942;3.644;2022-10-31T06:48:11;14.45;;;10.68;;
52948;SDS011;38812;50.942;3.644;2022-10-31T06:50:36;19.23;;;10.57;;
52948;SDS011;38812;50.942;3.644;2022-10-31T06:53:02;18.70;;;11.63;;
52948;SDS011;38812;50.942;3.644;2022-10-31T06:55:27;21.13;;;12.98;;
52948;SDS011;38812;50.942;3.644;2022-10-31T06:57:57;17.67;;;12.35;;
52948;SDS011;38812;50.942;3.644;2022-10-31T07:00:24;20.65;;;13.93;;
52948;SDS011;38812;50.942;3.644;2022-10-31T07:02:55;18.77;;;11.55;;
52948;SDS011;38812;50.942;3.644;2022-10-31T07:05:27;16.92;;;11.88;;
52948;SDS011;38812;50.942;3.644;2022-10-31T07:07:54;18.52;;;11.45;;
52948;SDS011;38812;50.942;3.644;2022-10-31T07:10:21;16.20;;;11.30;;
52948;SDS011;38812;50.942;3.644;2022-10-31T07:12:47;18.88;;;11.98;;
52948;SDS011;38812;50.942;3.644;2022-10-31T07:15:12;19.08;;;12.10;;
52948;SDS011;38812;50.942;3.644;2022-10-31T07:17:37;20.55;;;12.45;;
52948;SDS011;38812;50.942;3.644;2022-10-31T07:20:03;19.00;;;12.00;;
52948;SDS011;38812;50.942;3.644;2022-10-31T07:22:32;25.05;;;13.98;;
52948;SDS011;38812;50.942;3.644;2022-10-31T07:24:59;21.45;;;13.57;;
52948;SDS011;38812;50.942;3.644;2022-10-31T07:27:25;17.48;;;10.70;;
52948;SDS011;38812;50.942;3.644;2022-10-31T07:29:50;17.60;;;11.40;;
52948;SDS011;38812;50.942;3.644;2022-10-31T07:32:15;21.70;;;11.85;;
52948;SDS011;38812;50.942;3.644;2022-10-31T07:34:40;22.98;;;11.95;;
52948;SDS011;38812;50.942;3.644;2022-10-31T07:37:06;18.85;;;11.65;;
52948;SDS011;38812;50.942;3.644;2022-10-31T07:39:31;17.40;;;12.05;;
52948;SDS011;38812;50.942;3.644;2022-10-31T07:42:00;21.48;;;11.75;;
52948;SDS011;38812;50.942;3.644;2022-10-31T07:44:25;18.75;;;11.48;;
52948;SDS011;38812;50.942;3.644;2022-10-31T07:46:51;24.00;;;12.27;;
52948;SDS011;38812;50.942;3.644;2022-10-31T07:49:16;16.75;;;11.50;;
52948;SDS011;38812;50.942;3.644;2022-10-31T07:51:41;16.95;;;10.57;;
52948;SDS011;38812;50.942;3.644;2022-10-31T07:54:07;16.55;;;10.38;;
52948;SDS011;38812;50.942;3.644;2022-10-31T07:56:32;15.73;;;10.50;;
52948;SDS011;38812;50.942;3.644;2022-10-31T07:58:57;15.23;;;10.70;;
52948;SDS011;38812;50.942;3.644;2022-10-31T08:01:26;22.15;;;13.82;;
52948;SDS011;38812;50.942;3.644;2022-10-31T08:03:51;26.27;;;17.15;;
52948;SDS011;38812;50.942;3.644;2022-10-31T08:06:16;22.02;;;12.80;;
52948;SDS011;38812;50.942;3.644;2022-10-31T08:08:42;22.25;;;10.82;;
52948;SDS011;38812;50.942;3.644;2022-10-31T08:11:07;14.85;;;10.02;;
52948;SDS011;38812;50.942;3.644;2022-10-31T08:13:32;15.90;;;9.32;;
52948;SDS011;38812;50.942;3.644;2022-10-31T08:15:58;16.83;;;10.85;;
52948;SDS011;38812;50.942;3.644;2022-10-31T08:18:28;18.73;;;10.55;;
52948;SDS011;38812;50.942;3.644;2022-10-31T08:20:54;16.88;;;10.02;;
52948;SDS011;38812;50.942;3.644;2022-10-31T08:23:19;13.68;;;9.75;;
52948;SDS011;38812;50.942;3.644;2022-10-31T08:25:44;19.52;;;10.05;;
52948;SDS011;38812;50.942;3.644;2022-10-31T08:28:11;14.68;;;9.32;;
52948;SDS011;38812;50.942;3.644;2022-10-31T08:30:38;17.08;;;9.80;;
52948;SDS011;38812;50.942;3.644;2022-10-31T08:33:06;20.20;;;9.82;;
52948;SDS011;38812;50.942;3.644;2022-10-31T08:35:32;16.85;;;10.23;;
52948;SDS011;38812;50.942;3.644;2022-10-31T08:37:58;16.40;;;9.98;;
52948;SDS011;38812;50.942;3.644;2022-10-31T08:40:25;18.35;;;10.13;;
52948;SDS011;38812;50.942;3.644;2022-10-31T08:42:58;16.55;;;10.00;;
52948;SDS011;38812;50.942;3.644;2022-10-31T08:45:24;19.77;;;10.02;;
52948;SDS011;38812;50.942;3.644;2022-10-31T08:47:50;24.40;;;9.70;;
52948;SDS011;38812;50.942;3.644;2022-10-31T08:50:16;19.15;;;9.45;;
52948;SDS011;38812;50.942;3.644;2022-10-31T08:52:42;13.98;;;9.93;;
52948;SDS011;38812;50.942;3.644;2022-10-31T08:55:07;13.43;;;10.52;;
52948;SDS011;38812;50.942;3.644;2022-10-31T08:57:33;15.98;;;8.70;;
52948;SDS011;38812;50.942;3.644;2022-10-31T08:59:58;12.38;;;8.82;;
52948;SDS011;38812;50.942;3.644;2022-10-31T09:02:23;14.23;;;9.00;;
52948;SDS011;38812;50.942;3.644;2022-10-31T09:04:49;13.70;;;8.93;;
52948;SDS011;38812;50.942;3.644;2022-10-31T09:07:14;15.52;;;9.77;;
52948;SDS011;38812;50.942;3.644;2022-10-31T09:09:39;17.58;;;11.00;;
52948;SDS011;38812;50.942;3.644;2022-10-31T09:12:05;17.10;;;10.63;;
52948;SDS011;38812;50.942;3.644;2022-10-31T09:14:30;19.08;;;10.23;;
52948;SDS011;38812;50.942;3.644;2022-10-31T09:16:55;21.80;;;13.15;;
52948;SDS011;38812;50.942;3.644;2022-10-31T09:19:21;18.55;;;12.07;;
52948;SDS011;38812;50.942;3.644;2022-10-31T09:21:46;19.25;;;11.35;;
52948;SDS011;38812;50.942;3.644;2022-10-31T09:24:11;21.02;;;11.02;;
52948;SDS011;38812;50.942;3.644;2022-10-31T09:26:37;17.70;;;10.70;;
52948;SDS011;38812;50.942;3.644;2022-10-31T09:29:02;15.55;;;10.02;;
52948;SDS011;38812;50.942;3.644;2022-10-31T09:31:27;15.75;;;10.63;;
52948;SDS011;38812;50.942;3.644;2022-10-31T09:33:53;17.75;;;9.32;;
52948;SDS011;38812;50.942;3.644;2022-10-31T09:36:19;18.77;;;9.90;;
52948;SDS011;38812;50.942;3.644;2022-10-31T09:38:45;18.55;;;10.55;;
52948;SDS011;38812;50.942;3.644;2022-10-31T09:41:22;20.33;;;10.05;;
52948;SDS011;38812;50.942;3.644;2022-10-31T09:49:37;18.58;;;8.38;;
52948;SDS011;38812;50.942;3.644;2022-10-31T09:52:26;15.70;;;8.60;;
52948;SDS011;38812;50.942;3.644;2022-10-31T09:55:03;14.00;;;7.65;;
52948;SDS011;38812;50.942;3.644;2022-10-31T09:57:34;14.02;;;8.10;;
52948;SDS011;38812;50.942;3.644;2022-10-31T10:00:03;9.93;;;7.32;;
52948;SDS011;38812;50.942;3.644;2022-10-31T10:02:31;12.50;;;6.93;;
52948;SDS011;38812;50.942;3.644;2022-10-31T10:05:03;16.70;;;7.88;;
52948;SDS011;38812;50.942;3.644;2022-10-31T10:31:54;14.75;;;7.60;;
52948;SDS011;38812;50.942;3.644;2022-10-31T10:34:26;17.90;;;7.70;;
52948;SDS011;38812;50.942;3.644;2022-10-31T10:37:00;15.10;;;7.45;;
52948;SDS011;38812;50.942;3.644;2022-10-31T10:39:30;13.55;;;7.25;;
52948;SDS011;38812;50.942;3.644;2022-10-31T10:42:12;14.40;;;6.85;;
52948;SDS011;38812;50.942;3.644;2022-10-31T10:44:57;13.52;;;6.72;;
52948;SDS011;38812;50.942;3.644;2022-10-31T10:47:42;12.63;;;6.78;;
52948;SDS011;38812;50.942;3.644;2022-10-31T10:55:04;12.40;;;6.45;;
52948;SDS011;38812;50.942;3.644;2022-10-31T11:00:34;12.13;;;6.72;;
52948;SDS011;38812;50.942;3.644;2022-10-31T11:03:04;9.70;;;6.15;;
52948;SDS011;38812;50.942;3.644;2022-10-31T11:05:37;17.98;;;6.70;;
52948;SDS011;38812;50.942;3.644;2022-10-31T11:08:07;6.65;;;5.13;;
52948;SDS011;38812;50.942;3.644;2022-10-31T11:10:33;12.38;;;6.55;;
52948;SDS011;38812;50.942;3.644;2022-10-31T11:13:02;17.05;;;6.28;;
52948;SDS011;38812;50.942;3.644;2022-10-31T11:15:53;10.32;;;6.07;;
52948;SDS011;38812;50.942;3.644;2022-10-31T11:18:50;10.05;;;6.57;;
52948;SDS011;38812;50.942;3.644;2022-10-31T11:21:25;11.10;;;6.95;;
52948;SDS011;38812;50.942;3.644;2022-10-31T11:24:03;9.48;;;6.10;;
52948;SDS011;38812;50.942;3.644;2022-10-31T11:26:37;13.43;;;6.18;;
52948;SDS011;38812;50.942;3.644;2022-10-31T11:29:05;8.65;;;5.38;;
52948;SDS011;38812;50.942;3.644;2022-10-31T11:31:46;12.25;;;6.38;;
52948;SDS011;38812;50.942;3.644;2022-10-31T11:34:34;11.77;;;5.22;;
52948;SDS011;38812;50.942;3.644;2022-10-31T11:37:12;8.57;;;5.60;;
52948;SDS011;38812;50.942;3.644;2022-10-31T11:39:42;11.98;;;5.72;;
52948;SDS011;38812;50.942;3.644;2022-10-31T11:42:10;8.52;;;5.68;;
52948;SDS011;38812;50.942;3.644;2022-10-31T11:44:36;15.43;;;6.43;;
52948;SDS011;38812;50.942;3.644;2022-10-31T11:47:09;10.95;;;5.20;;
52948;SDS011;38812;50.942;3.644;2022-10-31T11:49:42;9.40;;;5.40;;
52948;SDS011;38812;50.942;3.644;2022-10-31T11:52:13;15.35;;;6.00;;
52948;SDS011;38812;50.942;3.644;2022-10-31T11:55:01;19.75;;;5.75;;
52948;SDS011;38812;50.942;3.644;2022-10-31T11:59:58;15.73;;;6.03;;
52948;SDS011;38812;50.942;3.644;2022-10-31T12:02:26;14.07;;;6.70;;
52948;SDS011;38812;50.942;3.644;2022-10-31T12:04:55;17.30;;;6.32;;
52948;SDS011;38812;50.942;3.644;2022-10-31T12:07:23;14.43;;;5.85;;
52948;SDS011;38812;50.942;3.644;2022-10-31T12:09:49;11.48;;;6.40;;
52948;SDS011;38812;50.942;3.644;2022-10-31T12:17:34;14.45;;;7.30;;
52948;SDS011;38812;50.942;3.644;2022-10-31T12:28:59;12.05;;;6.50;;
52948;SDS011;38812;50.942;3.644;2022-10-31T12:31:34;14.75;;;6.90;;
52948;SDS011;38812;50.942;3.644;2022-10-31T12:52:56;16.40;;;7.07;;
52948;SDS011;38812;50.942;3.644;2022-10-31T12:55:30;13.57;;;7.47;;
52948;SDS011;38812;50.942;3.644;2022-10-31T12:58:21;14.85;;;8.00;;
52948;SDS011;38812;50.942;3.644;2022-10-31T13:03:48;16.27;;;8.05;;
52948;SDS011;38812;50.942;3.644;2022-10-31T13:06:38;22.38;;;8.25;;
52948;SDS011;38812;50.942;3.644;2022-10-31T13:09:08;15.45;;;6.93;;
52948;SDS011;38812;50.942;3.644;2022-10-31T13:11:40;12.75;;;7.90;;
52948;SDS011;38812;50.942;3.644;2022-10-31T13:16:42;15.05;;;7.78;;
52948;SDS011;38812;50.942;3.644;2022-10-31T13:19:14;14.55;;;8.18;;
52948;SDS011;38812;50.942;3.644;2022-10-31T13:24:33;15.82;;;9.25;;
52948;SDS011;38812;50.942;3.644;2022-10-31T13:27:13;15.30;;;8.23;;
52948;SDS011;38812;50.942;3.644;2022-10-31T13:30:02;17.00;;;8.85;;
52948;SDS011;38812;50.942;3.644;2022-10-31T13:32:38;18.90;;;8.23;;
52948;SDS011;38812;50.942;3.644;2022-10-31T13:35:10;13.48;;;7.80;;
52948;SDS011;38812;50.942;3.644;2022-10-31T13:37:49;22.48;;;9.70;;
52948;SDS011;38812;50.942;3.644;2022-10-31T13:40:34;16.95;;;9.43;;
52948;SDS011;38812;50.942;3.644;2022-10-31T13:45:46;20.48;;;9.90;;
52948;SDS011;38812;50.942;3.644;2022-10-31T13:50:39;18.15;;;8.68;;
52948;SDS011;38812;50.942;3.644;2022-10-31T13:53:11;16.88;;;9.50;;
52948;SDS011;38812;50.942;3.644;2022-10-31T14:01:10;23.20;;;9.05;;
52948;SDS011;38812;50.942;3.644;2022-10-31T14:06:36;18.55;;;9.02;;
52948;SDS011;38812;50.942;3.644;2022-10-31T14:11:30;17.20;;;8.52;;
52948;SDS011;38812;50.942;3.644;2022-10-31T14:13:56;27.77;;;9.52;;
52948;SDS011;38812;50.942;3.644;2022-10-31T14:16:28;21.23;;;9.82;;
52948;SDS011;38812;50.942;3.644;2022-10-31T14:19:06;15.80;;;8.68;;
52948;SDS011;38812;50.942;3.644;2022-10-31T14:24:12;20.63;;;9.88;;
52948;SDS011;38812;50.942;3.644;2022-10-31T14:26:57;23.90;;;9.65;;
52948;SDS011;38812;50.942;3.644;2022-10-31T14:29:25;20.58;;;9.25;;
52948;SDS011;38812;50.942;3.644;2022-10-31T14:31:54;23.85;;;9.18;;
52948;SDS011;38812;50.942;3.644;2022-10-31T14:34:34;24.83;;;9.55;;
52948;SDS011;38812;50.942;3.644;2022-10-31T14:50:58;17.75;;;9.55;;
52948;SDS011;38812;50.942;3.644;2022-10-31T14:53:27;15.57;;;8.63;;
52948;SDS011;38812;50.942;3.644;2022-10-31T14:55:57;23.40;;;10.20;;
52948;SDS011;38812;50.942;3.644;2022-10-31T15:01:03;19.00;;;10.43;;
52948;SDS011;38812;50.942;3.644;2022-10-31T15:03:38;25.00;;;10.75;;
52948;SDS011;38812;50.942;3.644;2022-10-31T15:06:10;19.60;;;8.63;;
52948;SDS011;38812;50.942;3.644;2022-10-31T15:08:48;22.13;;;10.70;;
52948;SDS011;38812;50.942;3.644;2022-10-31T15:11:18;21.15;;;9.32;;
52948;SDS011;38812;50.942;3.644;2022-10-31T15:13:52;22.48;;;10.52;;
52948;SDS011;38812;50.942;3.644;2022-10-31T15:16:40;22.77;;;10.32;;
52948;SDS011;38812;50.942;3.644;2022-10-31T15:19:09;26.00;;;10.52;;
52948;SDS011;38812;50.942;3.644;2022-10-31T15:21:42;21.73;;;10.70;;
52948;SDS011;38812;50.942;3.644;2022-10-31T15:24:13;19.05;;;10.02;;
52948;SDS011;38812;50.942;3.644;2022-10-31T15:26:43;20.02;;;10.50;;
52948;SDS011;38812;50.942;3.644;2022-10-31T15:29:17;16.17;;;9.80;;
52948;SDS011;38812;50.942;3.644;2022-10-31T15:31:54;19.35;;;10.18;;
52948;SDS011;38812;50.942;3.644;2022-10-31T15:36:49;20.10;;;10.98;;
52948;SDS011;38812;50.942;3.644;2022-10-31T15:39:17;20.65;;;9.90;;
52948;SDS011;38812;50.942;3.644;2022-10-31T15:44:35;24.77;;;11.20;;
52948;SDS011;38812;50.942;3.644;2022-10-31T15:47:06;23.45;;;12.18;;
52948;SDS011;38812;50.942;3.644;2022-10-31T15:49:41;21.40;;;11.48;;
52948;SDS011;38812;50.942;3.644;2022-10-31T15:52:23;15.70;;;8.60;;
52948;SDS011;38812;50.942;3.644;2022-10-31T15:55:14;20.98;;;11.55;;
52948;SDS011;38812;50.942;3.644;2022-10-31T15:57:51;21.88;;;12.38;;
52948;SDS011;38812;50.942;3.644;2022-10-31T16:00:40;26.52;;;12.40;;
52948;SDS011;38812;50.942;3.644;2022-10-31T16:03:06;24.25;;;10.68;;
52948;SDS011;38812;50.942;3.644;2022-10-31T16:05:35;19.48;;;11.02;;
52948;SDS011;38812;50.942;3.644;2022-10-31T16:08:02;21.67;;;10.02;;
52948;SDS011;38812;50.942;3.644;2022-10-31T16:10:28;18.83;;;9.15;;
52948;SDS011;38812;50.942;3.644;2022-10-31T16:12:59;21.48;;;8.55;;
52948;SDS011;38812;50.942;3.644;2022-10-31T16:15:26;21.13;;;8.10;;
52948;SDS011;38812;50.942;3.644;2022-10-31T16:17:52;15.57;;;7.40;;
52948;SDS011;38812;50.942;3.644;2022-10-31T16:20:21;17.63;;;6.00;;
52948;SDS011;38812;50.942;3.644;2022-10-31T16:22:52;17.27;;;5.63;;
52948;SDS011;38812;50.942;3.644;2022-10-31T16:25:32;15.00;;;6.05;;
52948;SDS011;38812;50.942;3.644;2022-10-31T16:28:05;14.32;;;5.57;;
52948;SDS011;38812;50.942;3.644;2022-10-31T16:35:49;15.63;;;5.03;;
52948;SDS011;38812;50.942;3.644;2022-10-31T16:38:15;15.73;;;5.50;;
52948;SDS011;38812;50.942;3.644;2022-10-31T16:40:40;11.43;;;4.90;;
52948;SDS011;38812;50.942;3.644;2022-10-31T16:43:11;13.05;;;6.78;;
52948;SDS011;38812;50.942;3.644;2022-10-31T16:45:41;17.52;;;5.55;;
52948;SDS011;38812;50.942;3.644;2022-10-31T16:48:12;17.90;;;5.22;;
52948;SDS011;38812;50.942;3.644;2022-10-31T16:50:39;23.55;;;5.13;;
52948;SDS011;38812;50.942;3.644;2022-10-31T16:53:05;20.38;;;5.47;;
52948;SDS011;38812;50.942;3.644;2022-10-31T16:55:31;14.45;;;5.60;;
52948;SDS011;38812;50.942;3.644;2022-10-31T16:58:00;21.55;;;5.50;;
52948;SDS011;38812;50.942;3.644;2022-10-31T17:00:27;14.70;;;5.07;;
52948;SDS011;38812;50.942;3.644;2022-10-31T17:02:53;12.95;;;4.57;;
52948;SDS011;38812;50.942;3.644;2022-10-31T17:05:23;11.32;;;4.82;;
52948;SDS011;38812;50.942;3.644;2022-10-31T17:07:57;14.15;;;5.75;;
52948;SDS011;38812;50.942;3.644;2022-10-31T17:10:22;17.27;;;5.50;;
52948;SDS011;38812;50.942;3.644;2022-10-31T17:12:48;10.98;;;4.65;;
52948;SDS011;38812;50.942;3.644;2022-10-31T17:15:18;18.25;;;5.97;;
52948;SDS011;38812;50.942;3.644;2022-10-31T17:17:46;17.83;;;6.13;;
52948;SDS011;38812;50.942;3.644;2022-10-31T17:20:19;15.18;;;5.57;;
52948;SDS011;38812;50.942;3.644;2022-10-31T17:22:44;14.55;;;5.57;;
52948;SDS011;38812;50.942;3.644;2022-10-31T17:25:12;18.17;;;5.18;;
52948;SDS011;38812;50.942;3.644;2022-10-31T17:27:40;12.65;;;4.93;;
52948;SDS011;38812;50.942;3.644;2022-10-31T17:30:06;10.85;;;5.50;;